Time;durP1;ratioP1;P1;durP2;ratioP2;P2;SDS_P1;SDS_P2;PMS_P1;PMS_P2;Temp;Humidity;BMP_temperature;BMP_pressure;BME280_temperature;BME280_humidity;BME280_pressure;Samples;Min_cycle;Max_cycle;Signal;HPM_P1;HPM_P2
2021/10/15 00:00:42;;;;;;;18.30;12.98;;;;;;;3.86;72.05;101073.69;1735196;82;21493;-69
2021/10/15 00:03:08;;;;;;;19.40;12.30;;;;;;;3.84;72.23;101078.98;1734894;82;20951;-69
2021/10/15 00:05:35;;;;;;;18.73;13.32;;;;;;;3.82;72.46;101076.89;1703832;82;20927;-68
2021/10/15 00:08:02;;;;;;;19.37;13.30;;;;;;;3.80;72.63;101080.02;1735343;82;22225;-69
2021/10/15 00:10:28;;;;;;;18.07;12.15;;;;;;;3.81;72.61;101076.50;1735834;81;20948;-69
2021/10/15 00:12:55;;;;;;;20.50;12.85;;;;;;;3.83;72.56;101075.97;1735233;82;21351;-69
2021/10/15 00:15:21;;;;;;;18.92;12.75;;;;;;;3.80;72.47;101073.49;1734897;81;21015;-69
2021/10/15 00:17:48;;;;;;;18.12;12.63;;;;;;;3.75;72.50;101067.59;1734889;82;20944;-69
2021/10/15 00:20:15;;;;;;;16.87;12.07;;;;;;;3.72;72.50;101069.02;1734832;82;22319;-70
2021/10/15 00:22:41;;;;;;;18.52;12.68;;;;;;;3.70;72.36;101067.78;1764435;81;20936;-69
2021/10/15 00:25:09;;;;;;;18.82;12.70;;;;;;;3.62;72.30;101065.08;1763429;81;20991;-69
2021/10/15 00:27:35;;;;;;;20.32;12.88;;;;;;;3.57;72.45;101067.00;1744548;81;21660;-68
2021/10/15 00:30:03;;;;;;;20.45;14.38;;;;;;;3.53;72.59;101061.52;1703937;82;21446;-69
2021/10/15 00:32:31;;;;;;;22.25;14.85;;;;;;;3.50;72.78;101066.88;1734860;82;20967;-69
2021/10/15 00:34:57;;;;;;;23.50;14.50;;;;;;;3.50;72.85;101059.89;1734834;82;20939;-68
2021/10/15 00:37:24;;;;;;;19.37;13.13;;;;;;;3.50;72.85;101055.97;1749364;81;20988;-69
2021/10/15 00:39:51;;;;;;;22.70;14.70;;;;;;;3.49;72.84;101059.95;1765367;81;20988;-69
2021/10/15 00:42:17;;;;;;;21.45;13.80;;;;;;;3.45;72.88;101063.97;1765404;81;20983;-68
2021/10/15 00:44:44;;;;;;;23.60;15.05;;;;;;;3.43;72.87;101059.73;1759826;81;22245;-69
2021/10/15 00:47:10;;;;;;;19.02;14.00;;;;;;;3.41;72.79;101063.70;1735031;82;21042;-69
2021/10/15 00:49:37;;;;;;;21.57;14.38;;;;;;;3.38;72.75;101062.98;1735171;82;21003;-69
2021/10/15 00:52:07;;;;;;;19.90;14.40;;;;;;;3.34;72.77;101060.08;1735081;82;21023;-69
2021/10/15 00:54:33;;;;;;;23.80;14.73;;;;;;;3.32;72.81;101057.53;1713175;82;20983;-69
2021/10/15 00:56:59;;;;;;;20.80;14.18;;;;;;;3.29;72.87;101056.36;1735388;82;22486;-69
2021/10/15 00:59:26;;;;;;;21.45;14.85;;;;;;;3.25;72.92;101063.04;1734977;82;22261;-68
2021/10/15 01:01:52;;;;;;;19.23;14.23;;;;;;;3.23;72.91;101055.73;1742192;80;20991;-68
2021/10/15 01:04:20;;;;;;;19.85;14.03;;;;;;;3.20;72.92;101063.69;1765340;81;20948;-68
2021/10/15 01:06:47;;;;;;;19.82;14.07;;;;;;;3.18;72.98;101060.26;1765443;81;20942;-69
2021/10/15 01:09:13;;;;;;;23.80;15.10;;;;;;;3.16;73.07;101067.70;1765396;81;21836;-68
2021/10/15 01:11:41;;;;;;;23.42;14.53;;;;;;;3.15;73.04;101067.75;1765490;81;21451;-68
2021/10/15 01:14:08;;;;;;;22.52;14.75;;;;;;;3.12;73.07;101070.04;1765489;80;21398;-69
2021/10/15 01:16:35;;;;;;;22.77;14.85;;;;;;;3.11;73.08;101065.73;1733208;81;20980;-69
2021/10/15 01:19:02;;;;;;;22.30;15.43;;;;;;;3.08;73.03;101064.52;1764245;81;20931;-69
2021/10/15 01:21:29;;;;;;;24.30;15.45;;;;;;;3.05;73.09;101062.03;1765632;81;22190;-69
2021/10/15 01:23:56;;;;;;;20.82;14.73;;;;;;;3.04;73.14;101066.00;1765317;81;20948;-68
2021/10/15 01:26:23;;;;;;;22.48;15.72;;;;;;;3.03;73.21;101066.46;1765651;81;21012;-70
2021/10/15 01:28:51;;;;;;;24.50;16.90;;;;;;;3.01;73.28;101068.74;1765253;81;20952;-69
2021/10/15 01:31:17;;;;;;;26.10;16.15;;;;;;;3.00;73.34;101065.73;1759161;81;21516;-70
2021/10/15 01:33:44;;;;;;;24.12;15.93;;;;;;;2.99;73.38;101066.61;1750866;81;21851;-69
2021/10/15 01:36:10;;;;;;;26.23;16.35;;;;;;;2.99;73.43;101060.97;1745582;81;21548;-68
2021/10/15 01:38:37;;;;;;;20.90;15.75;;;;;;;2.96;73.45;101062.83;1765462;81;21443;-70
2021/10/15 01:41:03;;;;;;;23.05;15.00;;;;;;;2.94;73.46;101059.43;1765339;81;21212;-70
2021/10/15 01:43:31;;;;;;;21.97;14.98;;;;;;;2.92;73.51;101056.88;1765431;81;21035;-69
2021/10/15 01:45:58;;;;;;;20.68;15.13;;;;;;;2.90;73.49;101055.25;1765471;79;22216;-69
2021/10/15 01:48:25;;;;;;;21.15;14.85;;;;;;;2.88;73.46;101056.58;1765370;80;20968;-69
2021/10/15 01:50:51;;;;;;;20.37;14.83;;;;;;;2.84;73.47;101055.85;1765367;81;21043;-70
2021/10/15 01:53:18;;;;;;;20.27;15.05;;;;;;;2.81;73.46;101052.52;1752980;80;21392;-70
2021/10/15 01:55:45;;;;;;;21.12;14.50;;;;;;;2.80;73.54;101050.81;1764399;80;20979;-69
2021/10/15 01:58:12;;;;;;;22.25;15.38;;;;;;;2.80;73.57;101050.81;1765280;81;22221;-69
2021/10/15 02:00:38;;;;;;;20.05;14.30;;;;;;;2.79;73.60;101049.94;1765344;81;20928;-69
2021/10/15 02:03:05;;;;;;;23.42;15.00;;;;;;;2.78;73.59;101053.91;1765653;81;20924;-70
2021/10/15 02:05:32;;;;;;;22.15;14.30;;;;;;;2.75;73.63;101057.48;1765354;81;20992;-69
2021/10/15 02:08:05;;;;;;;21.95;14.93;;;;;;;2.74;73.69;101066.22;1765364;81;21015;-68
2021/10/15 02:10:31;;;;;;;21.25;14.28;;;;;;;2.73;73.70;101063.67;1764374;81;21800;-68
2021/10/15 02:12:57;;;;;;;20.50;14.63;;;;;;;2.71;73.70;101066.34;1765692;81;21010;-69
2021/10/15 02:15:26;;;;;;;20.43;14.93;;;;;;;2.69;73.72;101067.28;1763805;80;20940;-69
2021/10/15 02:17:52;;;;;;;22.60;14.43;;;;;;;2.71;73.74;101065.49;1759697;81;21020;-69
2021/10/15 02:20:19;;;;;;;20.90;14.55;;;;;;;2.70;73.66;101066.38;1759709;81;20980;-68
2021/10/15 02:22:48;;;;;;;22.27;14.53;;;;;;;2.68;73.59;101062.52;1759650;81;22652;-70
2021/10/15 02:25:15;;;;;;;21.15;14.50;;;;;;;2.67;73.50;101066.03;1759566;81;20972;-69
2021/10/15 02:27:44;;;;;;;21.60;14.80;;;;;;;2.63;73.45;101074.04;1742061;81;21008;-69
2021/10/15 02:30:11;;;;;;;20.80;14.45;;;;;;;2.58;73.39;101075.03;1729712;83;21015;-70
2021/10/15 02:32:38;;;;;;;20.88;14.10;;;;;;;2.54;73.47;101073.91;1729495;83;20975;-69
2021/10/15 02:35:06;;;;;;;21.57;14.60;;;;;;;2.51;73.65;101065.75;1729485;83;22256;-69
2021/10/15 02:37:34;;;;;;;22.95;15.40;;;;;;;2.53;73.80;101073.06;1709714;81;20978;-69
2021/10/15 02:40:01;;;;;;;22.35;15.15;;;;;;;2.53;73.87;101071.75;1741654;81;21042;-68
2021/10/15 02:42:28;;;;;;;22.82;14.35;;;;;;;2.54;73.85;101068.69;1729427;83;20948;-69
2021/10/15 02:44:54;;;;;;;21.97;14.23;;;;;;;2.54;73.91;101065.62;1749715;81;20980;-70
2021/10/15 02:47:23;;;;;;;24.18;15.45;;;;;;;2.54;73.96;101058.27;1759654;81;22195;-70
2021/10/15 02:49:50;;;;;;;22.30;15.20;;;;;;;2.55;74.09;101066.03;1759543;81;20936;-69
2021/10/15 02:52:18;;;;;;;21.60;14.58;;;;;;;2.56;74.04;101060.36;1759557;80;21351;-70
2021/10/15 02:54:44;;;;;;;23.90;15.70;;;;;;;2.53;74.01;101061.32;1759852;81;21062;-69
2021/10/15 02:57:10;;;;;;;20.48;14.75;;;;;;;2.54;74.10;101061.72;1740169;81;21109;-70
2021/10/15 02:59:37;;;;;;;22.15;14.98;;;;;;;2.57;74.15;101063.36;1703144;83;22185;-70
2021/10/15 03:02:03;;;;;;;21.25;14.28;;;;;;;2.59;74.14;101062.84;1751425;81;21053;-70
2021/10/15 03:04:31;;;;;;;21.27;14.80;;;;;;;2.59;74.18;101063.69;1759598;81;21015;-69
2021/10/15 03:06:58;;;;;;;21.75;15.20;;;;;;;2.58;74.20;101064.60;1759540;81;21414;-69
2021/10/15 03:09:24;;;;;;;21.25;14.23;;;;;;;2.59;74.22;101062.39;1759610;81;20987;-69
2021/10/15 03:11:54;;;;;;;21.75;14.83;;;;;;;2.59;74.15;101065.00;1759644;81;22305;-70
2021/10/15 03:14:20;;;;;;;21.30;14.07;;;;;;;2.54;74.04;101072.60;1759645;81;20931;-69
2021/10/15 03:16:46;;;;;;;22.02;14.28;;;;;;;2.46;73.97;101066.34;1759529;80;20932;-69
2021/10/15 03:19:13;;;;;;;19.92;14.18;;;;;;;2.42;73.95;101066.06;1758451;81;21000;-69
2021/10/15 03:21:39;;;;;;;21.07;14.70;;;;;;;2.40;73.98;101065.70;1759574;81;20940;-69
2021/10/15 03:24:06;;;;;;;21.85;14.30;;;;;;;2.39;73.99;101067.45;1759672;81;22148;-69
2021/10/15 03:26:33;;;;;;;19.05;14.25;;;;;;;2.39;73.93;101066.60;1759586;81;20980;-69
2021/10/15 03:29:00;;;;;;;19.45;13.35;;;;;;;2.33;73.92;101063.78;1759576;81;20980;-69
2021/10/15 03:31:26;;;;;;;21.15;13.68;;;;;;;2.31;73.90;101072.08;1759603;81;20936;-69
2021/10/15 03:33:52;;;;;;;22.15;14.05;;;;;;;2.26;73.86;101074.85;1759980;81;20976;-69
2021/10/15 03:36:19;;;;;;;19.60;13.68;;;;;;;2.24;73.84;101076.66;1734579;81;22654;-70
2021/10/15 03:38:45;;;;;;;20.40;13.70;;;;;;;2.18;73.79;101074.25;1729688;83;21376;-70
2021/10/15 03:41:12;;;;;;;19.98;14.55;;;;;;;2.16;73.82;101072.61;1759556;81;21040;-69
2021/10/15 03:43:38;;;;;;;22.55;14.35;;;;;;;2.13;73.85;101076.63;1753269;81;20992;-69
2021/10/15 03:46:05;;;;;;;20.82;13.80;;;;;;;2.12;73.88;101070.99;1740881;80;20979;-69
2021/10/15 03:48:31;;;;;;;19.67;13.78;;;;;;;2.11;73.96;101072.75;1729584;83;22177;-70
2021/10/15 03:50:58;;;;;;;20.60;14.55;;;;;;;2.13;74.05;101074.88;1729424;82;20999;-69
2021/10/15 03:53:25;;;;;;;26.80;16.32;;;;;;;2.14;74.17;101076.58;1744721;80;21028;-69
2021/10/15 03:55:51;;;;;;;25.00;16.90;;;;;;;2.11;74.28;101079.27;1759589;81;21061;-69
2021/10/15 03:58:18;;;;;;;22.85;15.98;;;;;;;2.09;74.38;101081.07;1755636;81;21423;-70
2021/10/15 04:00:44;;;;;;;21.02;15.63;;;;;;;2.09;74.40;101073.71;1699416;83;22638;-69
2021/10/15 04:03:11;;;;;;;23.07;15.35;;;;;;;2.10;74.48;101077.56;1726408;83;20940;-69
2021/10/15 04:05:37;;;;;;;25.20;15.28;;;;;;;2.11;74.44;101077.11;1726265;83;21276;-69
2021/10/15 04:08:04;;;;;;;20.75;14.55;;;;;;;2.09;74.35;101084.13;1699636;83;21112;-68
2021/10/15 04:10:30;;;;;;;19.70;14.43;;;;;;;2.05;74.33;101078.64;1756798;81;21019;-69
2021/10/15 04:12:57;;;;;;;18.20;13.83;;;;;;;2.01;74.37;101079.16;1759575;81;21888;-69
2021/10/15 04:15:23;;;;;;;19.32;14.15;;;;;;;2.00;74.45;101080.92;1759601;81;20988;-69
2021/10/15 04:17:50;;;;;;;23.07;14.38;;;;;;;2.02;74.57;101076.96;1766007;80;20937;-70
2021/10/15 04:20:17;;;;;;;18.25;14.10;;;;;;;2.05;74.62;101082.55;1766506;80;20965;-69
2021/10/15 04:22:43;;;;;;;20.55;14.00;;;;;;;2.05;74.54;101088.61;1793113;80;20996;-69
2021/10/15 04:25:09;;;;;;;19.00;13.90;;;;;;;2.04;74.42;101088.66;1793079;79;22251;-69
2021/10/15 04:27:36;;;;;;;19.12;13.53;;;;;;;2.00;74.33;101097.01;1763055;79;21009;-68
2021/10/15 04:30:04;;;;;;;19.15;13.70;;;;;;;1.94;74.30;101090.26;1761699;81;21418;-69
2021/10/15 04:32:32;;;;;;;20.62;14.85;;;;;;;1.95;74.37;101093.72;1761614;81;21513;-68
2021/10/15 04:34:59;;;;;;;35.83;24.32;;;;;;;1.95;74.55;101089.81;1761939;81;20909;-68
2021/10/15 04:37:25;;;;;;;36.10;23.95;;;;;;;1.97;74.67;101094.52;1761761;81;22456;-69
2021/10/15 04:39:51;;;;;;;31.17;22.30;;;;;;;1.97;74.72;101090.60;1761678;81;21024;-70
2021/10/15 04:42:19;;;;;;;28.57;19.17;;;;;;;2.00;74.74;101082.67;1762167;80;20988;-70
2021/10/15 04:44:46;;;;;;;25.32;16.52;;;;;;;2.01;74.77;101083.08;1761958;80;20952;-70
2021/10/15 04:47:13;;;;;;;24.43;16.25;;;;;;;2.02;74.82;101089.98;1761693;81;20984;-70
2021/10/15 04:49:41;;;;;;;21.33;15.23;;;;;;;2.03;74.91;101089.53;1752785;80;22679;-70
2021/10/15 04:52:07;;;;;;;21.00;15.72;;;;;;;2.05;74.97;101091.66;1793260;80;21387;-70
2021/10/15 04:54:34;;;;;;;22.98;15.20;;;;;;;2.07;75.01;101090.70;1780359;80;20996;-69
2021/10/15 04:57:00;;;;;;;21.82;15.00;;;;;;;2.09;75.05;101098.02;1761981;81;21023;-69
2021/10/15 04:59:27;;;;;;;21.62;15.35;;;;;;;2.11;75.10;101099.26;1779465;80;20925;-70
2021/10/15 05:01:54;;;;;;;21.55;15.03;;;;;;;2.13;75.13;101090.52;1793056;80;21841;-69
2021/10/15 05:04:20;;;;;;;19.42;14.70;;;;;;;2.16;75.20;101101.28;1792988;80;21469;-69
2021/10/15 05:06:47;;;;;;;21.25;15.63;;;;;;;2.18;75.40;101103.38;1792994;80;21360;-69
2021/10/15 05:09:26;;;;;;;19.20;13.93;;;;;;;2.19;75.55;101102.02;1792960;80;21048;-68
2021/10/15 05:11:45;;;;;;;21.52;15.85;;;;;;;2.22;75.72;101104.55;1791412;80;21475;-69
2021/10/15 05:14:12;;;;;;;23.32;14.75;;;;;;;2.27;75.89;101109.59;1792973;80;21812;-69
2021/10/15 05:16:39;;;;;;;21.80;14.87;;;;;;;2.30;76.09;101103.81;1781767;80;21003;-69
2021/10/15 05:19:05;;;;;;;18.95;13.62;;;;;;;2.37;76.26;101111.44;1765301;81;21455;-69
2021/10/15 05:21:33;;;;;;;22.00;15.25;;;;;;;2.42;76.40;101110.39;1765269;81;21027;-69
2021/10/15 05:23:59;;;;;;;25.43;15.98;;;;;;;2.47;76.52;101107.16;1765463;81;20943;-69
2021/10/15 05:26:26;;;;;;;22.73;15.45;;;;;;;2.54;76.67;101109.11;1765564;81;22167;-69
2021/10/15 05:28:52;;;;;;;17.42;13.32;;;;;;;2.60;76.81;101114.09;1765292;81;21565;-70
2021/10/15 05:31:18;;;;;;;20.88;15.75;;;;;;;2.67;76.94;101112.98;1733203;81;20956;-70
2021/10/15 05:33:46;;;;;;;19.73;13.88;;;;;;;2.70;76.99;101112.02;1759651;81;20960;-68
2021/10/15 05:36:13;;;;;;;19.65;15.50;;;;;;;2.73;77.08;101115.39;1735345;82;20995;-69
2021/10/15 05:38:39;;;;;;;18.67;13.28;;;;;;;2.75;77.21;101118.79;1734983;82;22195;-70
2021/10/15 05:41:06;;;;;;;20.35;14.58;;;;;;;2.81;77.34;101121.19;1734860;81;20979;-69
2021/10/15 05:43:32;;;;;;;19.07;15.25;;;;;;;2.89;77.48;101127.42;1740346;81;21003;-69
2021/10/15 05:45:58;;;;;;;18.35;13.88;;;;;;;2.95;77.60;101127.21;1765770;81;21024;-69
2021/10/15 05:48:25;;;;;;;20.17;14.83;;;;;;;3.05;77.71;101129.89;1765423;81;20968;-69
2021/10/15 05:50:51;;;;;;;19.57;13.93;;;;;;;3.12;77.79;101128.77;1764467;81;21486;-69
2021/10/15 05:53:19;;;;;;;19.52;14.13;;;;;;;3.22;77.92;101124.52;1765415;81;21080;-69
2021/10/15 06:01:07;;;;;;;19.05;14.58;;;;;;;3.50;78.12;101129.09;1735034;81;20969;-70
2021/10/15 06:03:34;;;;;;;18.02;13.03;;;;;;;3.61;78.16;101132.60;1734926;81;22687;-70
2021/10/15 06:16:38;;;;;;;20.37;14.68;;;;;;;4.15;78.46;101133.93;1734044;81;21826;-70
2021/10/15 06:19:06;;;;;;;18.80;13.80;;;;;;;4.28;78.51;101122.92;1765278;81;20928;-70
2021/10/15 06:21:34;;;;;;;23.55;16.57;;;;;;;4.42;78.55;101121.03;1765328;81;20991;-70
2021/10/15 06:24:01;;;;;;;22.42;17.70;;;;;;;4.52;78.42;101123.64;1765346;81;20948;-70
2021/10/15 06:26:27;;;;;;;23.15;16.62;;;;;;;4.63;78.39;101124.50;1738433;81;20864;-69
2021/10/15 06:28:54;;;;;;;24.55;16.93;;;;;;;4.74;78.38;101124.91;1734849;81;22643;-70
2021/10/15 06:31:21;;;;;;;25.90;18.50;;;;;;;4.87;78.39;101119.98;1734842;82;21027;-70
2021/10/15 06:33:47;;;;;;;23.05;16.65;;;;;;;5.00;78.34;101118.52;1734815;82;20988;-70
2021/10/15 06:36:14;;;;;;;23.77;17.45;;;;;;;5.14;78.25;101121.37;1735167;82;20981;-70
2021/10/15 06:38:40;;;;;;;19.52;15.40;;;;;;;5.27;78.21;101123.44;1735077;82;20952;-69
2021/10/15 06:41:07;;;;;;;25.00;16.87;;;;;;;5.40;78.12;101126.76;1735215;82;21794;-69
2021/10/15 06:43:33;;;;;;;23.55;17.80;;;;;;;5.53;78.07;101124.87;1735991;81;20987;-70
2021/10/15 06:46:00;;;;;;;25.35;17.90;;;;;;;5.66;78.04;101130.77;1746535;81;21034;-70
2021/10/15 06:48:26;;;;;;;23.42;17.27;;;;;;;5.80;77.91;101122.73;1765452;81;20940;-69
2021/10/15 06:50:52;;;;;;;22.62;16.73;;;;;;;5.93;77.87;101123.86;1765597;80;21026;-70
2021/10/15 06:53:20;;;;;;;22.45;17.05;;;;;;;6.08;77.89;101135.37;1765295;81;22637;-69
2021/10/15 06:55:47;;;;;;;26.52;19.55;;;;;;;6.23;77.78;101134.63;1765467;81;21090;-69
2021/10/15 06:58:14;;;;;;;24.92;17.50;;;;;;;6.39;77.68;101129.48;1765228;81;20983;-70
2021/10/15 07:00:40;;;;;;;23.77;16.55;;;;;;;6.57;77.62;101133.81;1764121;81;20932;-70
2021/10/15 07:03:18;;;;;;;21.57;16.40;;;;;;;6.73;77.48;101141.27;1745148;79;20946;-70
2021/10/15 07:05:45;;;;;;;22.22;16.30;;;;;;;6.87;77.23;101144.05;1755592;81;22683;-69
2021/10/15 07:08:13;;;;;;;25.20;17.90;;;;;;;7.01;76.86;101145.95;1755685;81;21002;-70
2021/10/15 07:10:40;;;;;;;22.93;16.55;;;;;;;7.11;76.46;101139.75;1755477;81;21419;-69
2021/10/15 07:13:06;;;;;;;26.20;17.48;;;;;;;7.20;76.07;101143.20;1755966;81;21008;-70
2021/10/15 07:15:33;;;;;;;24.55;17.15;;;;;;;7.29;75.76;101141.41;1755765;80;21018;-70
2021/10/15 07:18:01;;;;;;;25.72;17.27;;;;;;;7.38;75.36;101136.97;1761405;80;22232;-70
2021/10/15 07:20:28;;;;;;;26.23;18.35;;;;;;;7.49;75.00;101138.16;1759568;81;21377;-69
2021/10/15 07:22:55;;;;;;;28.35;19.23;;;;;;;7.62;74.68;101138.72;1759598;81;21023;-69
2021/10/15 07:25:22;;;;;;;24.85;16.48;;;;;;;7.73;74.11;101133.73;1759486;81;21478;-71
2021/10/15 07:27:49;;;;;;;22.00;16.77;;;;;;;7.88;73.69;101137.75;1732053;81;20917;-69
2021/10/15 07:30:16;;;;;;;24.50;17.62;;;;;;;7.97;72.91;101126.24;1759553;81;22216;-70
2021/10/15 07:32:44;;;;;;;24.75;17.82;;;;;;;8.09;72.64;101125.16;1754336;81;20999;-69
2021/10/15 07:35:11;;;;;;;21.20;16.27;;;;;;;8.22;72.14;101126.17;1729386;83;21023;-69
2021/10/15 07:37:37;;;;;;;19.40;14.75;;;;;;;8.31;71.40;101117.28;1729367;81;21396;-71
2021/10/15 07:40:07;;;;;;;20.85;15.90;;;;;;;8.41;70.83;101112.83;1729512;83;21026;-71
2021/10/15 07:42:34;;;;;;;19.80;14.30;;;;;;;8.51;70.62;101113.98;1729495;83;21753;-70
2021/10/15 07:45:00;;;;;;;19.40;14.15;;;;;;;8.66;70.30;101117.48;1729312;83;21423;-70
2021/10/15 07:47:28;;;;;;;17.60;12.15;;;;;;;8.78;69.83;101116.30;1729482;82;21439;-70
2021/10/15 07:49:54;;;;;;;19.42;13.93;;;;;;;8.88;69.09;101111.31;1730580;81;20996;-70
2021/10/15 07:52:21;;;;;;;14.98;11.90;;;;;;;8.97;68.89;101116.00;1729365;83;21019;-71
2021/10/15 07:54:47;;;;;;;16.05;12.53;;;;;;;9.09;67.73;101120.55;1729744;82;22183;-69
2021/10/15 07:57:14;;;;;;;16.40;11.35;;;;;;;9.17;67.14;101114.34;1754981;81;20977;-69
2021/10/15 07:59:42;;;;;;;13.93;10.78;;;;;;;9.24;66.56;101114.78;1759560;81;21019;-69
2021/10/15 08:02:09;;;;;;;12.33;9.60;;;;;;;9.34;66.04;101108.47;1759621;81;20956;-70
2021/10/15 08:04:37;;;;;;;13.13;9.95;;;;;;;9.46;65.20;101115.63;1759628;81;21392;-70
2021/10/15 08:07:04;;;;;;;13.45;9.70;;;;;;;9.55;64.66;101120.77;1754375;80;22175;-70
2021/10/15 08:09:31;;;;;;;16.57;11.33;;;;;;;9.63;64.00;101119.34;1742731;81;21415;-70
2021/10/15 08:11:59;;;;;;;13.22;10.03;;;;;;;9.72;63.57;101112.16;1759776;81;20936;-69
2021/10/15 08:14:26;;;;;;;12.93;9.95;;;;;;;9.80;63.66;101112.16;1759544;81;20948;-69
2021/10/15 08:16:53;;;;;;;14.60;9.08;;;;;;;9.90;63.28;101108.81;1759998;80;20964;-71
2021/10/15 08:19:19;;;;;;;12.85;9.53;;;;;;;10.03;62.84;101111.49;1765294;81;21763;-70
2021/10/15 08:21:47;;;;;;;13.60;9.48;;;;;;;10.16;62.28;101115.52;1765142;81;21497;-70
2021/10/15 08:24:14;;;;;;;14.40;9.80;;;;;;;10.21;61.19;101111.61;1764558;81;21478;-70
2021/10/15 08:26:41;;;;;;;11.85;9.28;;;;;;;10.23;60.99;101103.17;1765281;81;21379;-70
2021/10/15 08:29:08;;;;;;;11.88;9.63;;;;;;;10.25;60.60;101105.22;1765178;80;20948;-70
2021/10/15 08:31:35;;;;;;;13.45;9.55;;;;;;;10.29;60.33;101099.25;1765200;81;22295;-70
2021/10/15 08:34:07;;;;;;;13.08;8.85;;;;;;;10.34;60.14;101105.56;1765055;81;21054;-71
2021/10/15 08:36:29;;;;;;;14.18;9.65;;;;;;;10.42;60.42;101104.11;1764776;81;20944;-69
2021/10/15 08:38:57;;;;;;;11.78;9.33;;;;;;;10.52;60.08;101106.98;1765241;81;20951;-70
2021/10/15 08:41:24;;;;;;;11.93;9.15;;;;;;;10.58;59.45;101105.22;1764225;81;21481;-70
2021/10/15 08:43:53;;;;;;;11.78;9.18;;;;;;;10.65;59.37;101109.15;1765232;81;22673;-70
2021/10/15 08:46:21;;;;;;;11.38;8.98;;;;;;;10.71;59.18;101103.45;1765442;81;20924;-71
2021/10/15 08:48:48;;;;;;;13.20;9.45;;;;;;;10.77;58.53;101104.34;1765214;81;21019;-71
2021/10/15 08:51:15;;;;;;;14.15;8.73;;;;;;;10.86;58.50;101098.90;1770564;81;21014;-70
2021/10/15 08:53:51;;;;;;;8.73;7.25;;;;;;;10.96;58.25;101095.98;1771201;81;21046;-70
2021/10/15 08:56:19;;;;;;;9.25;7.22;;;;;;;11.08;56.96;101099.56;1754539;81;22375;-70
2021/10/15 08:58:48;;;;;;;10.03;7.25;;;;;;;11.16;56.65;101097.23;1739974;80;20984;-70
2021/10/15 09:01:15;;;;;;;10.65;7.50;;;;;;;11.21;56.38;101087.67;1784554;80;20957;-71
2021/10/15 09:03:42;;;;;;;8.75;7.10;;;;;;;11.30;55.41;101097.61;1784172;80;21055;-70
2021/10/15 09:06:10;;;;;;;8.88;6.55;;;;;;;11.41;55.37;101097.68;1756811;81;20993;-70
2021/10/15 09:08:54;;;;;;;8.20;6.15;;;;;;;11.55;55.07;101098.00;1756963;81;22590;-71
2021/10/15 09:11:30;;;;;;;6.58;4.70;;;;;;;11.67;53.56;101085.20;1756816;81;20932;-70
2021/10/15 09:14:18;;;;;;;9.73;7.67;;;;;;;11.76;53.30;101081.89;1750749;81;21423;-70
2021/10/15 09:17:17;;;;;;;9.48;7.00;;;;;;;11.87;53.52;101082.00;1729403;81;20987;-71
2021/10/15 09:19:47;;;;;;;7.70;5.50;;;;;;;11.95;53.30;101084.06;1726667;83;21011;-70
2021/10/15 09:22:27;;;;;;;7.28;5.40;;;;;;;12.09;52.08;101082.58;1726497;83;22512;-71
2021/10/15 09:25:05;;;;;;;6.78;5.35;;;;;;;12.23;50.72;101074.91;1726605;83;20980;-70
2021/10/15 09:27:38;;;;;;;5.55;4.22;;;;;;;12.29;50.67;101077.11;1684111;81;21015;-70
2021/10/15 09:30:17;;;;;;;6.33;5.05;;;;;;;12.38;49.67;101064.49;1756840;81;21028;-70
2021/10/15 09:33:01;;;;;;;5.25;4.22;;;;;;;12.53;49.75;101063.79;1739103;81;20983;-71
2021/10/15 09:35:29;;;;;;;5.10;4.45;;;;;;;12.70;48.99;101067.80;1724020;83;21846;-70
2021/10/15 09:38:08;;;;;;;6.30;4.50;;;;;;;12.88;48.67;101065.05;1753190;81;21395;-71
2021/10/15 09:40:42;;;;;;;6.72;4.85;;;;;;;13.00;48.48;101062.76;1726988;83;21545;-70
2021/10/15 09:43:10;;;;;;;5.95;4.83;;;;;;;13.09;48.14;101059.38;1724067;83;21043;-70
2021/10/15 09:45:45;;;;;;;7.33;4.87;;;;;;;13.23;47.50;101060.15;1726930;81;20952;-71
2021/10/15 09:48:36;;;;;;;6.37;4.20;;;;;;;13.32;47.51;101062.91;1724078;83;21826;-71
2021/10/15 09:51:20;;;;;;;6.55;4.60;;;;;;;13.44;47.01;101053.96;1725779;83;20952;-71
2021/10/15 09:54:10;;;;;;;5.17;3.87;;;;;;;13.58;47.15;101044.86;1726946;83;20936;-71
2021/10/15 09:56:49;;;;;;;5.37;3.90;;;;;;;13.80;46.51;101045.76;1726646;83;20952;-71
2021/10/15 09:59:16;;;;;;;5.53;4.22;;;;;;;13.86;45.47;101043.45;1726842;81;21064;-71
2021/10/15 10:01:43;;;;;;;6.67;3.60;;;;;;;13.93;45.80;101043.31;1726679;81;21823;-70
2021/10/15 10:04:11;;;;;;;4.58;3.52;;;;;;;14.07;45.20;101042.16;1750857;81;20946;-70
2021/10/15 10:06:39;;;;;;;4.37;3.30;;;;;;;14.13;43.08;101040.32;1755890;81;20924;-70
2021/10/15 10:09:06;;;;;;;5.17;3.35;;;;;;;14.10;40.99;101043.24;1757054;81;21019;-71
2021/10/15 10:11:34;;;;;;;4.33;3.67;;;;;;;14.05;42.38;101033.48;1784326;80;20908;-70
2021/10/15 10:14:01;;;;;;;6.58;3.70;;;;;;;14.14;43.15;101031.38;1784519;80;22157;-70
2021/10/15 10:16:29;;;;;;;4.90;3.83;;;;;;;14.26;43.20;101022.36;1756696;81;20980;-71
2021/10/15 10:18:58;;;;;;;6.17;4.45;;;;;;;14.37;42.74;101023.27;1788417;80;21459;-71
2021/10/15 10:21:29;;;;;;;4.22;3.52;;;;;;;14.44;43.02;101024.44;1775815;80;20980;-71
2021/10/15 10:24:01;;;;;;;5.55;3.85;;;;;;;14.49;42.15;101024.94;1762060;81;20976;-71
2021/10/15 10:26:28;;;;;;;4.78;3.40;;;;;;;14.49;41.33;101020.95;1823988;78;22406;-71
2021/10/15 10:29:05;;;;;;;4.72;3.37;;;;;;;14.50;40.57;101014.66;1823803;78;20920;-71
2021/10/15 10:31:31;;;;;;;3.58;3.08;;;;;;;14.50;40.90;101016.83;1821051;78;20939;-71
2021/10/15 10:34:03;;;;;;;5.62;3.47;;;;;;;14.54;40.34;101010.75;1823799;78;21006;-70
2021/10/15 10:36:32;;;;;;;5.17;3.45;;;;;;;14.59;40.14;101010.72;1824177;78;20959;-71
2021/10/15 10:39:24;;;;;;;3.10;2.37;;;;;;;14.72;41.43;100999.86;1823784;78;21802;-71
2021/10/15 10:42:24;;;;;;;4.55;3.00;;;;;;;14.98;40.27;101001.58;1798774;78;20990;-71
2021/10/15 10:44:58;;;;;;;5.75;2.90;;;;;;;15.12;40.02;100985.72;1823766;78;21446;-71
2021/10/15 10:47:27;;;;;;;4.22;2.80;;;;;;;15.23;39.07;100986.92;1824108;77;20987;-71
2021/10/15 10:50:11;;;;;;;3.50;3.12;;;;;;;15.27;39.22;100988.36;1823810;78;21058;-70
2021/10/15 10:52:51;;;;;;;4.20;2.87;;;;;;;15.39;39.43;100977.93;1801612;78;21674;-72
2021/10/15 10:55:46;;;;;;;3.25;2.70;;;;;;;15.59;38.81;100976.13;1791333;79;21428;-71
2021/10/15 10:58:37;;;;;;;3.75;2.80;;;;;;;15.69;38.33;100970.34;1817560;77;21050;-71
2021/10/15 11:01:21;;;;;;;5.62;2.65;;;;;;;15.75;38.30;100966.29;1823762;78;20991;-71
2021/10/15 11:03:48;;;;;;;3.35;2.60;;;;;;;15.90;37.32;100966.69;1824101;78;21423;-71
2021/10/15 11:06:14;;;;;;;3.33;2.30;;;;;;;16.11;35.92;100970.02;1762377;80;21792;-71
2021/10/15 11:08:43;;;;;;;3.30;2.00;;;;;;;16.14;35.64;100966.25;1761938;81;21043;-71
2021/10/15 11:11:33;;;;;;;3.55;2.37;;;;;;;16.18;35.46;100962.30;1761956;81;21420;-70
2021/10/15 11:13:55;;;;;;;2.77;2.15;;;;;;;16.26;34.48;100963.76;1769001;80;20961;-71
2021/10/15 11:16:25;;;;;;;1.90;1.65;;;;;;;16.10;34.42;100959.50;1793367;80;21482;-71
2021/10/15 11:18:53;;;;;;;2.70;1.80;;;;;;;16.05;35.01;100951.95;1788239;80;22968;-71
2021/10/15 11:21:21;;;;;;;2.30;1.98;;;;;;;16.06;34.87;100959.45;1784095;80;21381;-71
2021/10/15 11:23:48;;;;;;;2.83;1.98;;;;;;;16.03;34.91;100951.27;1784150;80;20926;-71
2021/10/15 11:26:14;;;;;;;4.92;2.30;;;;;;;16.12;36.02;100954.90;1768931;80;20995;-71
2021/10/15 11:28:41;;;;;;;5.28;2.30;;;;;;;16.34;37.11;100961.22;1780191;80;20977;-71
2021/10/15 11:31:11;;;;;;;3.42;2.25;;;;;;;16.60;35.37;100958.25;1746368;81;22174;-71
2021/10/15 11:33:38;;;;;;;3.17;2.02;;;;;;;16.75;34.93;100955.96;1735001;82;20944;-71
2021/10/15 11:36:06;;;;;;;2.87;2.55;;;;;;;16.89;35.40;100947.98;1734962;82;20976;-71
2021/10/15 11:38:33;;;;;;;2.35;2.08;;;;;;;17.07;34.59;100934.16;1734835;82;21442;-70
2021/10/15 11:41:06;;;;;;;2.85;2.40;;;;;;;17.13;33.57;100943.40;1734896;82;21427;-71